createdAt,value
2022-08-25T00:00:49.000Z,44.35
2022-08-25T00:01:55.000Z,45.06
2022-08-25T00:02:49.000Z,44.87
2022-08-25T00:03:49.000Z,44.25
2022-08-25T00:04:49.000Z,44.86
2022-08-25T00:05:49.000Z,44.86
2022-08-25T00:06:50.000Z,44.87
2022-08-25T00:07:49.000Z,44.88
2022-08-25T00:08:49.000Z,45.07
2022-08-25T00:09:49.000Z,45.18
2022-08-25T00:10:49.000Z,45.24
2022-08-25T00:11:49.000Z,45.32
2022-08-25T00:12:49.000Z,45.12
2022-08-25T00:13:54.000Z,45.19
2022-08-25T00:14:49.000Z,44.87
2022-08-25T00:15:49.000Z,45.59
2022-08-25T00:16:49.000Z,44.88
2022-08-25T00:17:49.000Z,45.42
2022-08-25T00:18:52.000Z,45.16
2022-08-25T00:19:49.000Z,45.01
2022-08-25T00:20:49.000Z,45.27
2022-08-25T00:21:49.000Z,45.30
2022-08-25T00:22:49.000Z,45.05
2022-08-25T00:23:49.000Z,45.22
2022-08-25T00:24:49.000Z,45.46
2022-08-25T00:25:49.000Z,45.18
2022-08-25T00:26:54.000Z,45.58
2022-08-25T00:27:49.000Z,45.76
2022-08-25T00:28:48.000Z,45.79
2022-08-25T00:29:49.000Z,45.60
2022-08-25T00:30:49.000Z,45.57
2022-08-25T00:31:49.000Z,45.68
2022-08-25T00:32:49.000Z,45.78
2022-08-25T00:33:50.000Z,45.91
2022-08-25T00:34:49.000Z,45.87
2022-08-25T00:35:49.000Z,45.49
2022-08-25T00:36:52.000Z,46.03
2022-08-25T00:37:49.000Z,46.00
2022-08-25T00:38:49.000Z,46.07
2022-08-25T00:39:49.000Z,46.34
2022-08-25T00:41:04.000Z,45.93
2022-08-25T00:41:52.000Z,46.53
2022-08-25T00:42:49.000Z,46.35
2022-08-25T00:43:56.000Z,46.50
2022-08-25T00:44:49.000Z,46.06
2022-08-25T00:45:49.000Z,46.12
2022-08-25T00:46:53.000Z,46.44
2022-08-25T00:47:48.000Z,46.38
2022-08-25T00:48:54.000Z,46.62
2022-08-25T00:49:55.000Z,46.74
2022-08-25T00:50:49.000Z,46.45
2022-08-25T00:51:56.000Z,46.52
2022-08-25T00:52:52.000Z,47.05
2022-08-25T00:53:49.000Z,46.80
2022-08-25T00:54:59.000Z,46.87
2022-08-25T00:55:49.000Z,46.91
2022-08-25T00:56:50.000Z,47.00
2022-08-25T00:58:11.000Z,47.08
2022-08-25T00:58:49.000Z,47.32
2022-08-25T00:59:49.000Z,47.26
2022-08-25T01:00:51.000Z,47.31
2022-08-25T01:01:49.000Z,47.11
2022-08-25T01:02:49.000Z,47.11
2022-08-25T01:03:49.000Z,47.46
2022-08-25T01:04:48.000Z,47.54
2022-08-25T01:05:50.000Z,47.72
2022-08-25T01:06:49.000Z,47.74
2022-08-25T01:07:50.000Z,47.35
2022-08-25T01:08:50.000Z,47.38
2022-08-25T01:09:50.000Z,47.69
2022-08-25T01:10:49.000Z,47.82
2022-08-25T01:11:48.000Z,47.77
2022-08-25T01:12:55.000Z,47.98
2022-08-25T01:13:55.000Z,48.10
2022-08-25T01:14:51.000Z,47.90
2022-08-25T01:15:52.000Z,47.81
2022-08-25T01:16:49.000Z,48.08
2022-08-25T01:17:54.000Z,48.17
2022-08-25T01:18:55.000Z,48.01
2022-08-25T01:19:48.000Z,48.23
2022-08-25T01:20:50.000Z,48.15
2022-08-25T01:21:50.000Z,48.08
2022-08-25T01:22:50.000Z,48.17
2022-08-25T01:23:49.000Z,48.17
2022-08-25T01:24:57.000Z,47.96
2022-08-25T01:26:02.000Z,48.45
2022-08-25T01:26:49.000Z,48.36
2022-08-25T01:27:49.000Z,48.26
2022-08-25T01:28:54.000Z,47.94
2022-08-25T01:29:48.000Z,48.13
2022-08-25T01:30:49.000Z,48.25
2022-08-25T01:31:59.000Z,48.74
2022-08-25T01:32:48.000Z,48.94
2022-08-25T01:33:49.000Z,48.35
2022-08-25T01:34:48.000Z,48.13
2022-08-25T01:35:49.000Z,48.54
2022-08-25T01:36:49.000Z,48.99
2022-08-25T01:37:48.000Z,48.91
2022-08-25T01:38:49.000Z,48.60
2022-08-25T01:39:48.000Z,49.20
2022-08-25T01:40:48.000Z,48.80
2022-08-25T01:41:59.000Z,48.96
2022-08-25T01:42:59.000Z,48.96
2022-08-25T01:43:49.000Z,49.21
2022-08-25T01:44:49.000Z,48.97
2022-08-25T01:45:49.000Z,49.41
2022-08-25T01:46:50.000Z,49.18
2022-08-25T01:47:49.000Z,49.31
2022-08-25T01:48:48.000Z,49.45
2022-08-25T01:49:48.000Z,49.16
2022-08-25T01:50:49.000Z,49.80
2022-08-25T01:51:58.000Z,49.61
2022-08-25T01:53:03.000Z,49.34
2022-08-25T01:53:49.000Z,49.12
2022-08-25T01:54:49.000Z,49.83
2022-08-25T01:55:52.000Z,50.24
2022-08-25T01:56:49.000Z,50.01
2022-08-25T01:57:49.000Z,49.91
2022-08-25T01:58:49.000Z,49.74
2022-08-25T01:59:49.000Z,50.14
2022-08-25T02:00:50.000Z,49.52
2022-08-25T02:01:49.000Z,50.11
2022-08-25T02:02:49.000Z,49.92
2022-08-25T02:03:51.000Z,50.16
2022-08-25T02:04:49.000Z,49.87
2022-08-25T02:05:49.000Z,50.34
2022-08-25T02:06:48.000Z,49.93
2022-08-25T02:07:49.000Z,49.91
2022-08-25T02:08:51.000Z,49.39
2022-08-25T02:09:49.000Z,49.58
2022-08-25T02:10:51.000Z,49.45
2022-08-25T02:11:49.000Z,50.17
2022-08-25T02:12:49.000Z,50.35
2022-08-25T02:13:50.000Z,50.09
2022-08-25T02:14:49.000Z,49.96
2022-08-25T02:15:54.000Z,50.06
2022-08-25T02:16:51.000Z,50.35
2022-08-25T02:17:49.000Z,50.70
2022-08-25T02:18:49.000Z,50.77
2022-08-25T02:19:49.000Z,50.25
2022-08-25T02:20:49.000Z,50.11
2022-08-25T02:21:49.000Z,50.88
2022-08-25T02:22:50.000Z,51.32
2022-08-25T02:23:49.000Z,51.00
2022-08-25T02:24:48.000Z,50.75
2022-08-25T02:25:49.000Z,50.16
2022-08-25T02:26:49.000Z,50.31
2022-08-25T02:27:48.000Z,49.96
2022-08-25T02:28:49.000Z,50.42
2022-08-25T02:29:48.000Z,51.06
2022-08-25T02:30:51.000Z,50.54
2022-08-25T02:31:48.000Z,50.29
2022-08-25T02:32:49.000Z,50.24
2022-08-25T02:33:49.000Z,49.93
2022-08-25T02:34:48.000Z,51.15
2022-08-25T02:35:49.000Z,51.01
2022-08-25T02:36:48.000Z,50.92
2022-08-25T02:37:49.000Z,51.04
2022-08-25T02:38:49.000Z,50.72
2022-08-25T02:39:48.000Z,50.31
2022-08-25T02:40:50.000Z,50.89
2022-08-25T02:41:48.000Z,50.66
2022-08-25T02:42:49.000Z,50.29
2022-08-25T02:43:49.000Z,50.66
2022-08-25T02:44:48.000Z,50.73
2022-08-25T02:45:48.000Z,50.57
2022-08-25T02:46:48.000Z,50.74
2022-08-25T02:47:48.000Z,50.79
2022-08-25T02:48:51.000Z,50.40
2022-08-25T02:49:48.000Z,50.49
2022-08-25T02:50:50.000Z,50.96
2022-08-25T02:51:48.000Z,50.34
2022-08-25T02:52:50.000Z,50.36
2022-08-25T02:53:48.000Z,50.96
2022-08-25T02:54:48.000Z,50.66
2022-08-25T02:55:48.000Z,51.03
2022-08-25T02:56:48.000Z,50.70
2022-08-25T02:57:48.000Z,50.96
2022-08-25T02:58:48.000Z,50.70
2022-08-25T02:59:50.000Z,50.40
2022-08-25T03:00:49.000Z,50.75
2022-08-25T03:01:48.000Z,50.91
2022-08-25T03:02:48.000Z,51.17
2022-08-25T03:03:50.000Z,51.36
2022-08-25T03:04:50.000Z,51.42
2022-08-25T03:05:49.000Z,51.34
2022-08-25T03:06:48.000Z,51.60
2022-08-25T03:07:48.000Z,51.19
2022-08-25T03:08:50.000Z,51.65
2022-08-25T03:09:48.000Z,51.79
2022-08-25T03:10:49.000Z,51.51
2022-08-25T03:11:48.000Z,51.79
2022-08-25T03:12:48.000Z,51.30
2022-08-25T03:13:49.000Z,51.76
2022-08-25T03:14:48.000Z,51.91
2022-08-25T03:15:48.000Z,51.38
2022-08-25T03:16:48.000Z,51.34
2022-08-25T03:17:48.000Z,52.01
2022-08-25T03:18:49.000Z,51.96
2022-08-25T03:19:48.000Z,51.86
2022-08-25T03:20:49.000Z,52.55
2022-08-25T03:21:51.000Z,52.27
2022-08-25T03:22:49.000Z,52.50
2022-08-25T03:23:48.000Z,52.63
2022-08-25T03:24:49.000Z,52.49
2022-08-25T03:25:54.000Z,52.09
2022-08-25T03:26:54.000Z,53.01
2022-08-25T03:27:50.000Z,52.56
2022-08-25T03:28:49.000Z,52.51
2022-08-25T03:29:49.000Z,52.18
2022-08-25T03:30:49.000Z,53.15
2022-08-25T03:31:50.000Z,52.68
2022-08-25T03:32:49.000Z,52.93
2022-08-25T03:33:49.000Z,52.62
2022-08-25T03:34:49.000Z,53.11
2022-08-25T03:35:49.000Z,53.29
2022-08-25T03:36:52.000Z,53.11
2022-08-25T03:37:54.000Z,53.33
2022-08-25T03:38:50.000Z,53.20
2022-08-25T03:39:49.000Z,53.14
2022-08-25T03:40:49.000Z,53.46
2022-08-25T03:41:51.000Z,52.84
2022-08-25T03:42:49.000Z,53.27
2022-08-25T03:43:50.000Z,52.87
2022-08-25T03:44:49.000Z,53.05
2022-08-25T03:45:49.000Z,53.43
2022-08-25T03:46:50.000Z,53.71
2022-08-25T03:47:50.000Z,54.10
2022-08-25T03:48:50.000Z,53.70
2022-08-25T03:49:49.000Z,53.63
2022-08-25T03:50:50.000Z,53.71
2022-08-25T03:51:51.000Z,53.91
2022-08-25T03:52:55.000Z,54.15
2022-08-25T03:53:50.000Z,54.26
2022-08-25T03:54:49.000Z,53.79
2022-08-25T03:55:49.000Z,53.47
2022-08-25T03:56:49.000Z,53.70
2022-08-25T03:57:50.000Z,53.99
2022-08-25T03:58:49.000Z,53.76
2022-08-25T03:59:48.000Z,54.32
2022-08-25T04:00:48.000Z,54.18
2022-08-25T04:01:48.000Z,54.62
2022-08-25T04:02:48.000Z,54.60
2022-08-25T04:03:48.000Z,54.32
2022-08-25T04:04:48.000Z,54.82
2022-08-25T04:05:48.000Z,54.90
2022-08-25T04:06:48.000Z,55.28
2022-08-25T04:07:48.000Z,55.31
2022-08-25T04:08:51.000Z,55.57
2022-08-25T04:09:48.000Z,55.16
2022-08-25T04:10:48.000Z,55.83
2022-08-25T04:11:49.000Z,55.51
2022-08-25T04:12:48.000Z,55.15
2022-08-25T04:13:49.000Z,55.54
2022-08-25T04:14:48.000Z,55.12
2022-08-25T04:15:48.000Z,55.43
2022-08-25T04:16:49.000Z,55.82
2022-08-25T04:17:48.000Z,55.67
2022-08-25T04:18:51.000Z,55.82
2022-08-25T04:19:49.000Z,55.99
2022-08-25T04:20:48.000Z,55.54
2022-08-25T04:21:49.000Z,55.79
2022-08-25T04:22:48.000Z,55.64
2022-08-25T04:23:50.000Z,56.20
2022-08-25T04:24:48.000Z,55.81
2022-08-25T04:25:48.000Z,56.23
2022-08-25T04:26:49.000Z,55.73
2022-08-25T04:27:48.000Z,56.08
2022-08-25T04:28:48.000Z,56.06
2022-08-25T04:29:48.000Z,56.15
2022-08-25T04:30:49.000Z,55.77
2022-08-25T04:31:50.000Z,56.14
2022-08-25T04:32:49.000Z,56.73
2022-08-25T04:33:49.000Z,56.71
2022-08-25T04:34:49.000Z,56.98
2022-08-25T04:35:49.000Z,56.92
2022-08-25T04:36:49.000Z,57.27
2022-08-25T04:37:49.000Z,56.77
2022-08-25T04:38:49.000Z,56.92
2022-08-25T04:39:48.000Z,57.19
2022-08-25T04:40:54.000Z,58.56
2022-08-25T04:41:49.000Z,58.33
2022-08-25T04:42:49.000Z,57.13
2022-08-25T04:43:49.000Z,58.33
2022-08-25T04:44:49.000Z,58.65
2022-08-25T04:45:49.000Z,58.43
2022-08-25T04:46:49.000Z,57.60
2022-08-25T04:47:49.000Z,58.42
2022-08-25T04:48:50.000Z,58.29
2022-08-25T04:49:49.000Z,57.98
2022-08-25T04:50:49.000Z,59.01
2022-08-25T04:51:48.000Z,58.48
2022-08-25T04:52:49.000Z,57.93
2022-08-25T04:53:50.000Z,58.00
2022-08-25T04:54:49.000Z,57.28
2022-08-25T04:55:48.000Z,57.36
2022-08-25T04:56:50.000Z,57.67
2022-08-25T04:57:48.000Z,57.72
2022-08-25T04:58:49.000Z,56.87
2022-08-25T04:59:49.000Z,56.45
2022-08-25T05:00:48.000Z,56.43
2022-08-25T05:01:49.000Z,56.34
2022-08-25T05:02:48.000Z,57.15
2022-08-25T05:03:55.000Z,57.22
2022-08-25T05:04:48.000Z,57.15
2022-08-25T05:05:50.000Z,57.18
2022-08-25T05:06:48.000Z,57.15
2022-08-25T05:07:48.000Z,57.30
2022-08-25T05:08:49.000Z,56.84
2022-08-25T05:09:48.000Z,56.97
2022-08-25T05:10:49.000Z,56.47
2022-08-25T05:11:48.000Z,56.84
2022-08-25T05:12:48.000Z,56.72
2022-08-25T05:13:50.000Z,56.47
2022-08-25T05:14:50.000Z,56.41
2022-08-25T05:15:56.000Z,56.25
2022-08-25T05:16:48.000Z,57.05
2022-08-25T05:17:48.000Z,57.53
2022-08-25T05:18:49.000Z,56.70
2022-08-25T05:19:48.000Z,56.99
2022-08-25T05:20:50.000Z,56.55
2022-08-25T05:21:49.000Z,57.71
2022-08-25T05:22:48.000Z,56.84
2022-08-25T05:23:48.000Z,56.66
2022-08-25T05:24:49.000Z,57.06
2022-08-25T05:25:50.000Z,56.92
2022-08-25T05:26:48.000Z,57.44
2022-08-25T05:27:48.000Z,57.07
2022-08-25T05:28:49.000Z,56.66
2022-08-25T05:29:48.000Z,56.46
2022-08-25T05:30:48.000Z,57.75
2022-08-25T05:31:49.000Z,57.29
2022-08-25T05:32:49.000Z,56.52
2022-08-25T05:33:50.000Z,57.55
2022-08-25T05:34:48.000Z,57.35
2022-08-25T05:35:49.000Z,57.05
2022-08-25T05:36:49.000Z,56.69
2022-08-25T05:37:48.000Z,56.69
2022-08-25T05:38:49.000Z,57.75
2022-08-25T05:39:48.000Z,58.09
2022-08-25T05:40:55.000Z,57.66
2022-08-25T05:41:48.000Z,57.76
2022-08-25T05:42:49.000Z,57.24
2022-08-25T05:43:49.000Z,56.87
2022-08-25T05:44:49.000Z,56.70
2022-08-25T05:45:52.000Z,56.60
2022-08-25T05:46:49.000Z,56.44
2022-08-25T05:47:49.000Z,56.78
2022-08-25T05:48:49.000Z,56.55
2022-08-25T05:49:48.000Z,56.84
2022-08-25T05:50:57.000Z,57.06
2022-08-25T05:51:48.000Z,56.52
2022-08-25T05:52:49.000Z,57.47
2022-08-25T05:53:49.000Z,57.22
2022-08-25T05:54:48.000Z,57.33
2022-08-25T05:55:51.000Z,57.30
2022-08-25T05:56:49.000Z,57.89
2022-08-25T05:57:49.000Z,57.69
2022-08-25T05:58:49.000Z,57.07
2022-08-25T05:59:48.000Z,56.70
2022-08-25T06:00:49.000Z,57.00
2022-08-25T06:01:54.000Z,57.67
2022-08-25T06:02:49.000Z,57.33
2022-08-25T06:03:52.000Z,57.43
2022-08-25T06:04:49.000Z,56.95
2022-08-25T06:05:49.000Z,57.36
2022-08-25T06:06:52.000Z,56.61
2022-08-25T06:07:50.000Z,57.01
2022-08-25T06:08:49.000Z,56.64
2022-08-25T06:09:49.000Z,57.61
2022-08-25T06:10:52.000Z,57.12
2022-08-25T06:11:49.000Z,57.53
2022-08-25T06:12:49.000Z,57.32
2022-08-25T06:13:49.000Z,57.07
2022-08-25T06:14:49.000Z,57.36
2022-08-25T06:15:49.000Z,57.14
2022-08-25T06:16:51.000Z,57.13
2022-08-25T06:17:50.000Z,57.49
2022-08-25T06:18:49.000Z,57.46
2022-08-25T06:19:49.000Z,57.27
2022-08-25T06:20:49.000Z,56.96
2022-08-25T06:21:52.000Z,57.12
2022-08-25T06:22:49.000Z,57.34
2022-08-25T06:23:49.000Z,57.27
2022-08-25T06:24:49.000Z,57.36
2022-08-25T06:25:52.000Z,57.08
2022-08-25T06:26:49.000Z,57.08
2022-08-25T06:27:49.000Z,57.49
2022-08-25T06:28:50.000Z,57.35
2022-08-25T06:29:49.000Z,57.08
2022-08-25T06:30:49.000Z,57.28
2022-08-25T06:31:49.000Z,56.99
2022-08-25T06:32:49.000Z,57.31
2022-08-25T06:33:49.000Z,57.48
2022-08-25T06:34:49.000Z,57.03
2022-08-25T06:35:52.000Z,57.13
2022-08-25T06:36:49.000Z,56.78
2022-08-25T06:37:48.000Z,56.93
2022-08-25T06:38:48.000Z,57.17
2022-08-25T06:39:48.000Z,57.17
2022-08-25T06:40:50.000Z,56.83
2022-08-25T06:41:52.000Z,56.95
2022-08-25T06:42:48.000Z,57.40
2022-08-25T06:43:48.000Z,57.56
2022-08-25T06:44:48.000Z,57.51
2022-08-25T06:45:48.000Z,57.36
2022-08-25T06:46:49.000Z,57.32
2022-08-25T06:47:48.000Z,57.21
2022-08-25T06:48:48.000Z,57.62
2022-08-25T06:49:48.000Z,57.47
2022-08-25T06:50:48.000Z,57.52
2022-08-25T06:51:49.000Z,56.97
2022-08-25T06:52:50.000Z,57.05
2022-08-25T06:53:49.000Z,57.53
2022-08-25T06:54:49.000Z,57.42
2022-08-25T06:55:54.000Z,57.20
2022-08-25T06:56:49.000Z,57.22
2022-08-25T06:57:51.000Z,57.32
2022-08-25T06:58:48.000Z,57.16
2022-08-25T06:59:48.000Z,57.46
2022-08-25T07:00:49.000Z,57.71
2022-08-25T07:01:48.000Z,57.09
2022-08-25T07:02:48.000Z,56.83
2022-08-25T07:03:49.000Z,56.52
2022-08-25T07:04:49.000Z,56.71
2022-08-25T07:05:50.000Z,56.60
2022-08-25T07:06:49.000Z,56.39
2022-08-25T07:07:49.000Z,56.30
2022-08-25T07:08:49.000Z,56.28
2022-08-25T07:09:48.000Z,56.54
2022-08-25T07:10:49.000Z,56.26
2022-08-25T07:11:49.000Z,56.26
2022-08-25T07:12:50.000Z,55.98
2022-08-25T07:13:49.000Z,56.06
2022-08-25T07:14:49.000Z,56.29
2022-08-25T07:15:53.000Z,55.93
2022-08-25T07:16:49.000Z,55.98
2022-08-25T07:17:49.000Z,55.94
2022-08-25T07:18:49.000Z,56.02
2022-08-25T07:19:49.000Z,56.33
2022-08-25T07:20:51.000Z,56.22
2022-08-25T07:21:51.000Z,55.93
2022-08-25T07:22:48.000Z,55.93
2022-08-25T07:23:49.000Z,56.07
2022-08-25T07:24:49.000Z,56.34
2022-08-25T07:25:49.000Z,56.33
2022-08-25T07:26:49.000Z,55.97
2022-08-25T07:27:49.000Z,56.00
2022-08-25T07:28:50.000Z,56.09
2022-08-25T07:29:49.000Z,55.71
2022-08-25T07:30:49.000Z,55.78
2022-08-25T07:31:49.000Z,55.61
2022-08-25T07:32:49.000Z,55.80
2022-08-25T07:33:54.000Z,55.69
2022-08-25T07:34:53.000Z,55.35
2022-08-25T07:35:48.000Z,55.23
2022-08-25T07:36:48.000Z,55.35
2022-08-25T07:37:51.000Z,55.20
2022-08-25T07:38:49.000Z,54.75
2022-08-25T07:39:48.000Z,54.86
2022-08-25T07:41:00.000Z,54.69
2022-08-25T07:41:50.000Z,54.70
2022-08-25T07:42:51.000Z,54.54
2022-08-25T07:43:48.000Z,54.49
2022-08-25T07:44:48.000Z,54.34
2022-08-25T07:45:48.000Z,54.24
2022-08-25T07:46:50.000Z,54.41
2022-08-25T07:47:50.000Z,54.85
2022-08-25T07:48:48.000Z,54.87
2022-08-25T07:49:48.000Z,54.87
2022-08-25T07:50:48.000Z,55.03
2022-08-25T07:51:51.000Z,54.86
2022-08-25T07:52:49.000Z,54.90
2022-08-25T07:53:48.000Z,54.69
2022-08-25T07:54:48.000Z,54.59
2022-08-25T07:55:48.000Z,54.40
2022-08-25T07:56:49.000Z,54.30
2022-08-25T07:57:49.000Z,54.22
2022-08-25T07:58:48.000Z,54.05
2022-08-25T07:59:48.000Z,53.88
2022-08-25T08:00:51.000Z,53.76
2022-08-25T08:01:48.000Z,53.76
2022-08-25T08:02:48.000Z,53.55
2022-08-25T08:03:49.000Z,53.45
2022-08-25T08:04:50.000Z,53.75
2022-08-25T08:05:48.000Z,53.38
2022-08-25T08:06:48.000Z,53.32
2022-08-25T08:07:48.000Z,53.32
2022-08-25T08:08:50.000Z,53.84
2022-08-25T08:09:49.000Z,53.68
2022-08-25T08:10:48.000Z,53.51
2022-08-25T08:11:48.000Z,53.62
2022-08-25T08:12:48.000Z,53.60
2022-08-25T08:13:48.000Z,53.80
2022-08-25T08:14:49.000Z,53.62
2022-08-25T08:15:48.000Z,53.58
2022-08-25T08:16:48.000Z,53.38
2022-08-25T08:17:48.000Z,53.51
2022-08-25T08:18:48.000Z,53.03
2022-08-25T08:19:48.000Z,52.85
2022-08-25T08:20:48.000Z,52.62
2022-08-25T08:21:49.000Z,52.66
2022-08-25T08:22:48.000Z,52.63
2022-08-25T08:23:49.000Z,52.43
2022-08-25T08:24:48.000Z,52.56
2022-08-25T08:25:48.000Z,52.13
2022-08-25T08:26:48.000Z,52.36
2022-08-25T08:27:49.000Z,52.54
2022-08-25T08:28:49.000Z,52.16
2022-08-25T08:29:48.000Z,52.04
2022-08-25T08:30:48.000Z,51.96
2022-08-25T08:31:48.000Z,52.12
2022-08-25T08:32:48.000Z,51.86
2022-08-25T08:33:49.000Z,51.52
2022-08-25T08:34:49.000Z,51.49
2022-08-25T08:35:55.000Z,51.67
2022-08-25T08:36:49.000Z,51.33
2022-08-25T08:37:49.000Z,51.36
2022-08-25T08:38:49.000Z,51.34
2022-08-25T08:39:50.000Z,51.49
2022-08-25T08:41:14.000Z,51.45
2022-08-25T08:42:04.000Z,51.56
2022-08-25T08:43:07.000Z,51.57
2022-08-25T08:44:04.000Z,51.31
2022-08-25T08:45:03.000Z,51.05
2022-08-25T08:45:51.000Z,51.02
2022-08-25T08:47:08.000Z,50.89
2022-08-25T08:48:11.000Z,50.72
2022-08-25T08:49:00.000Z,50.68
2022-08-25T08:49:59.000Z,50.42
2022-08-25T08:51:19.000Z,50.56
2022-08-25T08:51:59.000Z,50.34
2022-08-25T08:52:56.000Z,50.17
2022-08-25T08:54:12.000Z,50.39
2022-08-25T08:54:55.000Z,50.23
2022-08-25T08:55:56.000Z,50.01
2022-08-25T08:56:58.000Z,50.42
2022-08-25T08:57:52.000Z,50.35
2022-08-25T08:58:59.000Z,50.23
2022-08-25T08:59:54.000Z,50.12
2022-08-25T09:00:54.000Z,50.33
2022-08-25T09:01:52.000Z,49.99
2022-08-25T09:02:59.000Z,50.33
2022-08-25T09:04:07.000Z,50.20
2022-08-25T09:04:57.000Z,49.91
2022-08-25T09:05:52.000Z,49.92
2022-08-25T09:06:49.000Z,49.94
2022-08-25T09:07:56.000Z,49.82
2022-08-25T09:08:49.000Z,49.44
2022-08-25T09:09:50.000Z,49.15
2022-08-25T09:10:59.000Z,49.47
2022-08-25T09:12:09.000Z,49.45
2022-08-25T09:13:00.000Z,49.40
2022-08-25T09:14:06.000Z,49.33
2022-08-25T09:14:59.000Z,49.58
2022-08-25T09:16:03.000Z,49.37
2022-08-25T09:17:04.000Z,49.34
2022-08-25T09:18:02.000Z,49.30
2022-08-25T09:19:12.000Z,49.54
2022-08-25T09:19:59.000Z,49.44
2022-08-25T09:21:05.000Z,49.30
2022-08-25T09:22:00.000Z,49.46
2022-08-25T09:23:09.000Z,48.81
2022-08-25T09:24:03.000Z,48.48
2022-08-25T09:25:05.000Z,48.02
2022-08-25T09:26:09.000Z,48.36
2022-08-25T09:27:12.000Z,48.12
2022-08-25T09:27:59.000Z,47.99
2022-08-25T09:29:17.000Z,47.78
2022-08-25T09:30:06.000Z,47.32
2022-08-25T09:31:01.000Z,47.25
2022-08-25T09:31:49.000Z,46.86
2022-08-25T09:32:52.000Z,46.48
2022-08-25T09:33:53.000Z,46.95
2022-08-25T09:34:51.000Z,46.79
2022-08-25T09:35:51.000Z,46.46
2022-08-25T09:36:51.000Z,46.48
2022-08-25T09:37:55.000Z,46.46
2022-08-25T09:38:48.000Z,46.57
2022-08-25T09:39:49.000Z,46.51
2022-08-25T09:40:53.000Z,46.52
2022-08-25T09:41:54.000Z,45.54
2022-08-25T09:42:52.000Z,45.54
2022-08-25T09:43:52.000Z,45.07
2022-08-25T09:44:48.000Z,45.32
2022-08-25T09:45:58.000Z,45.65
2022-08-25T09:46:59.000Z,45.52
2022-08-25T09:47:48.000Z,45.17
2022-08-25T09:48:51.000Z,44.70
2022-08-25T09:49:59.000Z,45.14
2022-08-25T09:50:51.000Z,45.23
2022-08-25T09:51:48.000Z,45.20
2022-08-25T09:52:48.000Z,45.20
2022-08-25T09:53:58.000Z,45.31
2022-08-25T09:54:49.000Z,45.23
2022-08-25T09:55:57.000Z,44.99
2022-08-25T09:56:54.000Z,44.55
2022-08-25T09:57:51.000Z,44.63
2022-08-25T09:58:49.000Z,44.48
2022-08-25T09:59:51.000Z,44.38
2022-08-25T10:00:58.000Z,44.37
2022-08-25T10:01:55.000Z,44.22
2022-08-25T10:02:58.000Z,43.77
2022-08-25T10:03:57.000Z,43.55
2022-08-25T10:04:49.000Z,43.69
2022-08-25T10:06:04.000Z,43.77
2022-08-25T10:06:49.000Z,43.44
2022-08-25T10:07:53.000Z,43.45
2022-08-25T10:08:57.000Z,43.36
2022-08-25T10:09:58.000Z,43.33
2022-08-25T10:10:52.000Z,43.09
2022-08-25T10:11:48.000Z,42.80
2022-08-25T10:12:48.000Z,43.02
2022-08-25T10:14:14.000Z,43.02
2022-08-25T10:14:49.000Z,42.70
2022-08-25T10:16:03.000Z,42.97
2022-08-25T10:16:48.000Z,42.95
2022-08-25T10:17:48.000Z,42.73
2022-08-25T10:18:58.000Z,42.84
2022-08-25T10:20:03.000Z,42.79
2022-08-25T10:21:11.000Z,42.74
2022-08-25T10:22:05.000Z,43.22
2022-08-25T10:22:49.000Z,43.39
2022-08-25T10:23:51.000Z,43.27
2022-08-25T10:24:48.000Z,43.29
2022-08-25T10:25:49.000Z,43.31
2022-08-25T10:27:00.000Z,43.03
2022-08-25T10:27:59.000Z,43.06
2022-08-25T10:29:01.000Z,42.98
2022-08-25T10:29:58.000Z,42.94
2022-08-25T10:31:18.000Z,42.49
2022-08-25T10:31:57.000Z,42.52
2022-08-25T10:33:04.000Z,42.51
2022-08-25T10:34:18.000Z,42.45
2022-08-25T10:34:55.000Z,42.26
2022-08-25T10:35:58.000Z,41.69
2022-08-25T10:36:58.000Z,42.11
2022-08-25T10:38:02.000Z,41.81
2022-08-25T10:38:56.000Z,41.93
2022-08-25T10:40:12.000Z,42.28
2022-08-25T10:41:05.000Z,41.91
2022-08-25T10:42:11.000Z,42.08
2022-08-25T10:42:58.000Z,42.38
2022-08-25T10:44:01.000Z,42.36
2022-08-25T10:45:08.000Z,42.45
2022-08-25T10:46:00.000Z,42.15
2022-08-25T10:47:02.000Z,42.01
2022-08-25T10:48:07.000Z,41.83
2022-08-25T10:49:01.000Z,41.76
2022-08-25T10:49:54.000Z,41.57
2022-08-25T10:51:00.000Z,41.84
2022-08-25T10:51:59.000Z,41.58
2022-08-25T10:53:12.000Z,41.11
2022-08-25T10:54:01.000Z,40.94
2022-08-25T10:54:59.000Z,40.86
2022-08-25T10:56:02.000Z,40.67
2022-08-25T10:57:05.000Z,40.66
2022-08-25T10:58:01.000Z,40.61
2022-08-25T10:59:06.000Z,40.06
2022-08-25T10:59:58.000Z,40.23
2022-08-25T11:01:01.000Z,40.46
2022-08-25T11:02:25.000Z,39.93
2022-08-25T11:03:10.000Z,40.00
2022-08-25T11:04:11.000Z,39.90
2022-08-25T11:04:59.000Z,39.88
2022-08-25T11:05:54.000Z,39.93
2022-08-25T11:06:59.000Z,39.17
2022-08-25T11:07:55.000Z,39.54
2022-08-25T11:08:54.000Z,39.23
2022-08-25T11:09:53.000Z,39.24
2022-08-25T11:10:58.000Z,39.14
2022-08-25T11:11:55.000Z,39.16
2022-08-25T11:12:53.000Z,39.08
2022-08-25T11:13:56.000Z,39.08
2022-08-25T11:14:54.000Z,38.72
2022-08-25T11:15:53.000Z,38.95
2022-08-25T11:16:58.000Z,39.16
2022-08-25T11:17:56.000Z,38.53
2022-08-25T11:18:54.000Z,38.53
2022-08-25T11:19:53.000Z,38.72
2022-08-25T11:20:58.000Z,38.26
2022-08-25T11:21:58.000Z,38.03
2022-08-25T11:23:11.000Z,38.00
2022-08-25T11:24:00.000Z,37.96
2022-08-25T11:25:11.000Z,37.57
2022-08-25T11:25:57.000Z,37.99
2022-08-25T11:26:54.000Z,37.58
2022-08-25T11:27:57.000Z,37.69
2022-08-25T11:29:00.000Z,37.73
2022-08-25T11:29:58.000Z,37.64
2022-08-25T11:30:50.000Z,37.42
2022-08-25T11:31:51.000Z,37.66
2022-08-25T11:32:51.000Z,37.95
2022-08-25T11:33:49.000Z,37.95
2022-08-25T11:34:50.000Z,37.77
2022-08-25T11:36:00.000Z,37.56
2022-08-25T11:36:53.000Z,37.21
2022-08-25T11:38:08.000Z,37.43
2022-08-25T11:39:08.000Z,36.98
2022-08-25T11:40:12.000Z,37.50
2022-08-25T11:41:12.000Z,37.25
2022-08-25T11:42:04.000Z,37.14
2022-08-25T11:43:12.000Z,37.00
2022-08-25T11:44:17.000Z,36.96
2022-08-25T11:44:59.000Z,37.14
2022-08-25T11:46:12.000Z,37.10
2022-08-25T11:47:14.000Z,36.95
2022-08-25T11:48:04.000Z,36.83
2022-08-25T11:48:59.000Z,36.58
2022-08-25T11:50:01.000Z,36.73
2022-08-25T11:50:56.000Z,37.19
2022-08-25T11:51:50.000Z,37.22
2022-08-25T11:52:54.000Z,37.44
2022-08-25T11:54:18.000Z,37.28
2022-08-25T11:54:49.000Z,37.44
2022-08-25T11:55:52.000Z,37.73
2022-08-25T11:57:09.000Z,37.57
2022-08-25T11:57:51.000Z,37.65
2022-08-25T11:58:52.000Z,37.73
2022-08-25T12:00:10.000Z,37.63
2022-08-25T12:00:49.000Z,37.68
2022-08-25T12:01:58.000Z,37.83
2022-08-25T12:02:50.000Z,37.68
2022-08-25T12:03:49.000Z,37.57
2022-08-25T12:04:50.000Z,37.60
2022-08-25T12:06:05.000Z,37.69
2022-08-25T12:07:19.000Z,37.86
2022-08-25T12:08:07.000Z,37.49
2022-08-25T12:09:00.000Z,37.48
2022-08-25T12:10:09.000Z,37.18
2022-08-25T12:11:01.000Z,37.44
2022-08-25T12:11:52.000Z,37.28
2022-08-25T12:12:55.000Z,37.73
2022-08-25T12:13:50.000Z,37.31
2022-08-25T12:14:50.000Z,37.08
2022-08-25T12:16:04.000Z,37.07
2022-08-25T12:17:08.000Z,37.48
2022-08-25T12:18:12.000Z,37.29
2022-08-25T12:18:48.000Z,37.24
2022-08-25T12:19:55.000Z,37.21
2022-08-25T12:21:11.000Z,37.36
2022-08-25T12:21:50.000Z,37.50
2022-08-25T12:22:54.000Z,37.61
2022-08-25T12:23:58.000Z,37.80
2022-08-25T12:24:53.000Z,37.90
2022-08-25T12:25:53.000Z,37.75
2022-08-25T12:26:55.000Z,37.31
2022-08-25T12:28:08.000Z,37.23
2022-08-25T12:29:02.000Z,37.37
2022-08-25T12:29:59.000Z,37.19
2022-08-25T12:30:57.000Z,36.78
2022-08-25T12:31:59.000Z,36.52
2022-08-25T12:32:59.000Z,36.69
2022-08-25T12:33:58.000Z,36.41
2022-08-25T12:34:58.000Z,36.17
2022-08-25T12:35:57.000Z,36.11
2022-08-25T12:36:55.000Z,36.01
2022-08-25T12:37:58.000Z,35.91
2022-08-25T12:38:49.000Z,35.90
2022-08-25T12:40:02.000Z,35.56
2022-08-25T12:41:11.000Z,35.56
2022-08-25T12:41:55.000Z,35.62
2022-08-25T12:43:01.000Z,35.69
2022-08-25T12:43:50.000Z,35.80
2022-08-25T12:45:08.000Z,35.79
2022-08-25T12:45:51.000Z,35.86
2022-08-25T12:47:08.000Z,35.89
2022-08-25T12:47:51.000Z,35.42
2022-08-25T12:48:58.000Z,35.21
2022-08-25T12:49:49.000Z,35.26
2022-08-25T12:50:57.000Z,35.31
2022-08-25T12:52:17.000Z,35.41
2022-08-25T12:52:49.000Z,35.44